Flight Track Log - Related Links

Times and Time Zones

All times are in EDT time to prevent confusion due to time zone crossing. See the JBU1371 flight status page for this flight to view local times or setup timezone preferences in your user account.

Time Position Orientation Groundspeed Altitude Reporting Facility
EDT Latitude Longitude Course Direction KTS MPH feet Rate Location/Type
Fri 10:34:31 PM 40.7500 -73.8500 222° Southwest 173 199 1,700  Level New York TRACON
Fri 10:35:37 PM 40.7667 -73.8000 66° East 228 262 3,800 2,650 Climbing New York TRACON
Fri 10:36:31 PM 40.7833 -73.8833 285° West 278 320 7,000 2,412 Climbing New York TRACON
Fri 10:37:00 PM 40.3034 -74.1164 207° Southwest  Level Estimated
Fri 10:38:00 PM 40.1849 -74.1768 210° Southwest  Level Estimated
Fri 10:39:00 PM 40.0663 -74.2370 222° Southwest  Level Estimated
Fri 10:39:01 PM 40.6525 -74.0917 230° Southwest 309 356 12,000  Level New York Center
Fri 10:40:00 PM 40.5964 -74.1628 224° Southwest 319 367 12,100 1,513 Climbing New York Center
Fri 10:41:00 PM 40.5025 -74.1636 180° South 300 345 15,000 2,500 Climbing New York Center
Fri 10:42:00 PM 40.4150 -74.1594 178° South 330 380 17,100 1,835 Climbing New York Center
Fri 10:43:01 PM 40.2997 -74.1864 190° South 375 432 18,700 1,934 Climbing New York Center
Fri 10:44:01 PM 40.1844 -74.2106 189° South 398 458 21,000 1,709 Climbing New York Center
Fri 10:45:53 PM 39.9731 -74.2892 196° South 436 502 23,600 1,605 Climbing Washington Center
Fri 10:46:53 PM 39.8658 -74.3831 214° Southwest 447 514 25,600 1,714 Climbing Washington Center
Fri 10:47:52 PM 39.7708 -74.4900 221° Southwest 455 524 27,000 1,475 Climbing Washington Center
Fri 10:48:51 PM 39.6803 -74.6156 227° Southwest 465 535 28,500 1,300 Climbing Washington Center
Fri 10:49:52 PM 39.5875 -74.7381 226° Southwest 470 541 29,600 1,100 Climbing Washington Center
Fri 10:50:51 PM 39.4883 -74.8683 225° Southwest 491 565 30,700 1,311 Climbing Washington Center
Fri 10:51:51 PM 39.3847 -74.9875 222° Southwest 497 572 32,200 1,525 Climbing Washington Center
Fri 10:52:53 PM 39.2603 -75.0636 205° Southwest 503 579 33,800 1,279 Climbing Washington Center
Fri 10:53:53 PM 39.1375 -75.1419 206° Southwest 498 573 34,800 1,271 Climbing Washington Center
Fri 10:54:51 PM 39.0147 -75.2175 206° Southwest 493 567 36,300 966 Climbing Washington Center
Fri 10:55:51 PM 38.8878 -75.2931 205° Southwest 493 567 36,700 639 Climbing Washington Center
Fri 10:56:53 PM 38.7608 -75.3708 206° Southwest 498 573 37,600 645 Climbing Washington Center
Fri 10:57:52 PM 38.6381 -75.4481 206° Southwest 498 573 38,000 202 Climbing Washington Center
Fri 10:58:52 PM 38.5150 -75.5200 205° Southwest 498 573 38,000  Level Washington Center
Fri 10:59:51 PM 38.3900 -75.5997 207° Southwest 498 573 38,000  Level Washington Center
Fri 11:00:53 PM 38.2628 -75.6658 202° Southwest 504 580 38,000  Level Washington Center
Fri 11:01:53 PM 38.1397 -75.7422 206° Southwest 504 580 38,000  Level Washington Center
Fri 11:02:51 PM 38.0164 -75.8211 207° Southwest 504 580 38,000  Level Washington Center
Fri 11:03:53 PM 37.8892 -75.8892 203° Southwest 504 580 38,000  Level Washington Center
Fri 11:04:54 PM 37.7658 -75.9675 207° Southwest 504 580 38,000  Level Washington Center
Fri 11:05:52 PM 37.6383 -76.0428 205° Southwest 504 580 38,000  Level Washington Center
Fri 11:06:53 PM 37.5131 -76.1156 205° Southwest 504 580 38,000  Level Washington Center
Fri 11:07:53 PM 37.3856 -76.1853 203° Southwest 504 580 38,000  Level Washington Center
Fri 11:08:51 PM 37.2578 -76.2572 204° Southwest 504 580 38,000  Level Washington Center
Fri 11:09:52 PM 37.1322 -76.3317 205° Southwest 504 580 38,000  Level Washington Center
Fri 11:10:53 PM 37.0044 -76.4033 204° Southwest 504 580 38,000  Level Washington Center
Fri 11:11:53 PM 36.8789 -76.4772 205° Southwest 504 580 38,000  Level Washington Center
Fri 11:12:53 PM 36.7489 -76.5511 204° Southwest 504 580 38,000  Level Washington Center
Fri 11:13:53 PM 36.6356 -76.6194 206° Southwest 504 580 38,000  Level Washington Center
Fri 11:14:51 PM 36.5036 -76.6928 204° Southwest 509 586 38,000  Level Washington Center
Fri 11:15:52 PM 36.3756 -76.7658 205° Southwest 509 586 38,000  Level Washington Center
Fri 11:16:53 PM 36.2456 -76.8358 203° Southwest 509 586 38,000  Level Washington Center
Fri 11:17:51 PM 36.1153 -76.9111 205° Southwest 509 586 38,000  Level Washington Center
Fri 11:18:52 PM 35.9853 -76.9808 203° Southwest 509 586 38,000  Level Washington Center
Fri 11:19:51 PM 35.8550 -77.0528 204° Southwest 509 586 38,000  Level Washington Center
Fri 11:20:52 PM 35.7247 -77.1247 204° Southwest 504 580 38,000  Level Washington Center
Fri 11:21:53 PM 35.6008 -77.1939 204° Southwest 504 580 38,000  Level Washington Center
Fri 11:22:53 PM 35.4683 -77.2675 204° Southwest 509 586 38,000  Level Washington Center
Fri 11:23:53 PM 35.3381 -77.3386 204° Southwest 509 586 38,000  Level Washington Center
Fri 11:24:53 PM 35.2097 -77.4072 204° Southwest 509 586 38,000  Level Washington Center
Fri 11:25:51 PM 35.0733 -77.4522 195° South 509 586 38,000  Level Washington Center
Fri 11:26:52 PM 34.9328 -77.4997 195° South 514 592 38,000  Level Washington Center
Fri 11:27:53 PM 34.7839 -77.5494 195° South 514 592 38,000  Level Washington Center
Fri 11:28:53 PM 34.6453 -77.5964 196° South 514 592 38,000  Level Washington Center
Fri 11:29:51 PM 34.5069 -77.6436 196° South 514 592 38,000  Level Washington Center
Fri 11:30:51 PM 34.3706 -77.6881 195° South 514 592 38,000  Level Washington Center
Fri 11:32:40 PM 34.1286 -77.7628 194° South 526 605 38,000  Level Jacksonville Center
Fri 11:33:40 PM 33.9906 -77.8083 195° South 526 605 38,000  Level Jacksonville Center
Fri 11:34:41 PM 33.8547 -77.8511 195° South 521 600 38,000  Level Jacksonville Center
Fri 11:35:41 PM 33.7186 -77.8964 195° South 516 594 38,000  Level Jacksonville Center
Fri 11:36:40 PM 33.5828 -77.9392 195° South 511 588 38,000  Level Jacksonville Center
Fri 11:37:40 PM 33.4489 -77.9839 196° South 506 582 38,000 -50 Level Jacksonville Center
Fri 11:38:40 PM 33.3125 -78.0236 194° South 506 582 37,900  Descending Jacksonville Center
Fri 11:39:40 PM 33.1808 -78.0681 196° South 506 582 38,000 50 Climbing Jacksonville Center
Fri 11:40:40 PM 33.0447 -78.1125 195° South 506 582 38,000  Level Jacksonville Center
Fri 11:41:41 PM 32.9128 -78.1517 194° South 506 582 38,000  Level Jacksonville Center
Fri 11:42:41 PM 32.7783 -78.1908 194° South 506 582 38,000  Level Jacksonville Center
Fri 11:43:40 PM 32.6486 -78.2347 196° South 506 582 38,000  Level Jacksonville Center
Fri 11:44:40 PM 32.5144 -78.2761 195° South 506 582 38,000  Level Jacksonville Center
Fri 11:45:40 PM 32.3825 -78.3172 195° South 506 582 38,000  Level Jacksonville Center
Fri 11:46:40 PM 32.2400 -78.3636 195° South 500 575 38,000  Level Jacksonville Center
Fri 11:47:40 PM 32.1081 -78.4069 196° South 495 570 38,000  Level Jacksonville Center
Fri 11:48:40 PM 31.9758 -78.4478 195° South 490 564 38,000  Level Jacksonville Center
Fri 11:49:40 PM 31.8417 -78.4908 195° South 492 566 38,000  Level Jacksonville Center
Fri 11:50:40 PM 31.7094 -78.5289 194° South 491 565 38,000  Level Jacksonville Center
Fri 11:51:40 PM 31.5792 -78.5692 195° South 486 559 38,000  Level Jacksonville Center
Fri 11:52:40 PM 31.4450 -78.6119 195° South 494 568 38,000  Level Jacksonville Center
Fri 11:53:41 PM 31.3147 -78.6519 195° South 490 564 38,000  Level Jacksonville Center
Fri 11:54:40 PM 31.1806 -78.6944 195° South 496 571 38,000  Level Jacksonville Center
Fri 11:55:40 PM 31.0503 -78.7342 195° South 483 556 38,000  Level Jacksonville Center
Fri 11:56:40 PM 30.9303 -78.7661 193° South 488 562 38,000  Level Jacksonville Center
Fri 11:58:17 PM 30.7272 -78.8264 194° South 470 541 38,000 -38 Level Miami Center
Fri 11:59:16 PM 30.5975 -78.8647 194° South 476 548 37,900  Descending Miami Center
Sat 12:00:18 AM 30.4639 -78.8961 191° South 476 548 38,000 50 Climbing Miami Center
Sat 12:01:16 AM 30.3322 -78.9247 191° South 476 548 38,000  Level Miami Center
Sat 12:02:16 AM 30.2003 -78.9533 191° South 482 555 38,000  Level Miami Center
Sat 12:03:16 AM 30.0708 -78.9794 190° South 487 560 38,000  Level Miami Center
Sat 12:04:17 AM 29.9367 -79.0128 192° South 492 566 38,000  Level Miami Center
Sat 12:05:16 AM 29.8031 -79.0364 189° South 484 557 38,000  Level Miami Center
Sat 12:06:17 AM 29.6772 -79.0697 193° South 484 557 38,000  Level Miami Center
Sat 12:07:17 AM 29.5436 -79.0933 189° South 484 557 38,000  Level Miami Center
Sat 12:08:16 AM 29.4117 -79.1192 190° South 489 563 38,000  Level Miami Center
Sat 12:09:16 AM 29.2861 -79.1475 191° South 483 556 38,000  Level Miami Center
Sat 12:10:16 AM 29.1564 -79.1758 191° South 478 550 38,000  Level Miami Center
Sat 12:11:16 AM 29.0264 -79.2014 190° South 478 550 38,000  Level Miami Center
Sat 12:12:16 AM 28.8947 -79.2272 190° South 483 556 38,000  Level Miami Center
Sat 12:13:17 AM 28.7647 -79.2528 190° South 483 556 38,000  Level Miami Center
Sat 12:14:16 AM 28.6350 -79.2783 190° South 483 556 38,000  Level Miami Center
Sat 12:15:17 AM 28.5094 -79.3039 190° South 477 549 38,000  Level Miami Center
Sat 12:16:18 AM 28.3836 -79.3319 191° South 471 542 38,000  Level Miami Center
Sat 12:17:18 AM 28.2581 -79.3575 190° South 471 542 38,000  Level Miami Center
Sat 12:18:18 AM 28.1325 -79.3806 189° South 471 542 38,000  Level Miami Center
Sat 12:19:16 AM 28.0044 -79.4083 191° South 471 542 38,000 -103 Level Miami Center
Sat 12:20:15 AM 27.8914 -79.4294 189° South 471 542 37,800 -1,082 Descending Miami Center
Sat 12:21:18 AM 27.7425 -79.4611 191° South 452 520 35,800 -2,231 Descending Miami Center
Sat 12:22:16 AM 27.6128 -79.4864 190° South 462 532 33,300 -3,051 Descending Miami Center
Sat 12:23:16 AM 27.4806 -79.5136 190° South 479 551 29,800 -3,174 Descending Miami Center
Sat 12:24:17 AM 27.3611 -79.5367 190° South 485 558 26,900 -2,705 Descending Miami Center
Sat 12:25:18 AM 27.2314 -79.5642 191° South 485 558 24,300 -3,305 Descending Miami Center
Sat 12:26:15 AM 27.0947 -79.6053 195° South 470 541 20,400 -3,641 Descending Miami Center
Sat 12:27:15 AM 26.9708 -79.6467 197° South 470 541 17,200 -2,900 Descending Miami Center
Sat 12:28:15 AM 26.8592 -79.6858 197° South 443 510 14,600 -2,700 Descending Miami Center
Sat 12:29:15 AM 26.7478 -79.7250 197° South 428 493 11,800 -1,884 Descending Miami Center
Sat 12:30:16 AM 26.6469 -79.7575 196° South 402 463 10,800 -968 Descending Miami Center
Sat 12:30:48 AM 26.5942 -79.7817 202° Southwest 322 371 10,300 -1,119 Descending Miami Center
Sat 12:31:15 AM 26.5628 -79.7903 194° South 350 403 9,700 -1,238 Descending Miami Center
Sat 12:31:51 AM 26.5122 -79.8075 197° South 303 349 9,000 -1,200 Descending Miami Center
Sat 12:32:15 AM 26.4808 -79.8161 194° South 313 360 8,500 -1,034 Descending Miami Center
Sat 12:32:49 AM 26.4322 -79.8356 200° South 295 339 8,000 -600 Descending Miami Center
Sat 12:33:15 AM 26.4069 -79.8467 201° Southwest 294 338 7,900 -492 Descending Miami Center
Sat 12:33:50 AM 26.3650 -79.8572 193° South 247 284 7,500 -689 Descending Miami Center
Sat 12:34:16 AM 26.3400 -79.8542 174° South 260 299 7,200 -1,082 Descending Miami Center
Sat 12:34:51 AM 26.2983 -79.8508 176° South 237 273 6,400 -1,258 Descending Miami Center
Sat 12:35:18 AM 26.2733 -79.8456 169° South 240 276 5,900 -1,082 Descending Miami Center
Sat 12:35:52 AM 26.2358 -79.8447 179° South 237 273 5,300 -1,158 Descending Miami Center
Sat 12:36:15 AM 26.2108 -79.8394 169° South 235 270 4,800 -984 Descending Miami Center
Sat 12:36:53 AM 26.1669 -79.8383 179° South 234 269 4,300 -800 Descending Miami Center
Sat 12:37:15 AM 26.1483 -79.8356 172° South 235 270 4,000 -300 Descending Miami Center
Sat 12:37:53 AM 26.1086 -79.8344 179° South 205 236 4,000  Level Miami Center
Sat 12:38:16 AM 26.0878 -79.8317 173° South 225 259 4,000 -492 Level Miami Center
Sat 12:38:54 AM 26.0517 -79.8517 206° Southwest 228 262 3,500 -712 Descending Miami Center
Sat 12:39:15 AM 26.0536 -79.8703 277° West 184 212 3,300 -900 Descending Miami Center
Sat 12:39:54 AM 26.0567 -79.9142 274° West 206 237 2,600 -780 Descending Miami Center
Sat 12:40:55 AM 26.0658 -79.9769 279° West 198 228 2,000 -347 Descending Miami Center
Sat 12:41:55 AM 26.0750 -80.0372 280° West 188 216 1,900 -443 Descending Miami Center
Sat 12:42:57 AM 26.0739 -80.0881 269° West 149 171 1,100 -774 Descending Miami Center
Sat 12:44:00 AM 26.0726 -80.1527 269° West  Level Estimated
Sat 12:51:00 AM 26.0726 -80.1527 198° South  Level Estimated

Login

Don't have an account? Register now (free) for customized features, flight alerts, and more!